sensor_id;sensor_type;location;lat;lon;timestamp;P1;durP1;ratioP1;P2;durP2;ratioP2
19754;SDS011;10036;47.812;9.274;2022-09-27T00:01:45;3.97;;;1.40;;
19754;SDS011;10036;47.812;9.274;2022-09-27T00:04:12;1.40;;;1.30;;
19754;SDS011;10036;47.812;9.274;2022-09-27T00:06:39;2.63;;;1.40;;
19754;SDS011;10036;47.812;9.274;2022-09-27T00:09:06;2.35;;;1.60;;
19754;SDS011;10036;47.812;9.274;2022-09-27T00:11:34;2.22;;;1.60;;
19754;SDS011;10036;47.812;9.274;2022-09-27T00:14:02;1.63;;;1.52;;
19754;SDS011;10036;47.812;9.274;2022-09-27T00:16:31;3.42;;;1.88;;
19754;SDS011;10036;47.812;9.274;2022-09-27T00:19:01;3.40;;;1.70;;
19754;SDS011;10036;47.812;9.274;2022-09-27T00:21:30;3.22;;;1.83;;
19754;SDS011;10036;47.812;9.274;2022-09-27T00:23:57;1.80;;;1.70;;
19754;SDS011;10036;47.812;9.274;2022-09-27T00:26:25;2.50;;;1.50;;
19754;SDS011;10036;47.812;9.274;2022-09-27T00:28:52;1.70;;;1.55;;
19754;SDS011;10036;47.812;9.274;2022-09-27T00:31:21;1.70;;;1.60;;
19754;SDS011;10036;47.812;9.274;2022-09-27T00:33:49;1.20;;;1.20;;
19754;SDS011;10036;47.812;9.274;2022-09-27T00:36:20;1.60;;;1.50;;
19754;SDS011;10036;47.812;9.274;2022-09-27T00:38:48;1.70;;;1.60;;
19754;SDS011;10036;47.812;9.274;2022-09-27T00:41:16;1.40;;;1.30;;
19754;SDS011;10036;47.812;9.274;2022-09-27T00:43:45;1.65;;;1.55;;
19754;SDS011;10036;47.812;9.274;2022-09-27T00:46:17;1.58;;;1.48;;
19754;SDS011;10036;47.812;9.274;2022-09-27T00:48:46;1.50;;;1.40;;
19754;SDS011;10036;47.812;9.274;2022-09-27T00:51:19;3.40;;;1.98;;
19754;SDS011;10036;47.812;9.274;2022-09-27T00:53:47;1.42;;;1.33;;
19754;SDS011;10036;47.812;9.274;2022-09-27T00:56:17;1.20;;;1.20;;
19754;SDS011;10036;47.812;9.274;2022-09-27T00:58:47;1.90;;;1.40;;
19754;SDS011;10036;47.812;9.274;2022-09-27T01:01:18;1.50;;;1.40;;
19754;SDS011;10036;47.812;9.274;2022-09-27T01:03:48;1.60;;;1.50;;
19754;SDS011;10036;47.812;9.274;2022-09-27T01:06:22;1.70;;;1.60;;
19754;SDS011;10036;47.812;9.274;2022-09-27T01:08:49;2.17;;;1.60;;
19754;SDS011;10036;47.812;9.274;2022-09-27T01:11:22;1.58;;;1.40;;
19754;SDS011;10036;47.812;9.274;2022-09-27T01:14:03;2.63;;;1.48;;
19754;SDS011;10036;47.812;9.274;2022-09-27T01:16:42;1.90;;;1.70;;
19754;SDS011;10036;47.812;9.274;2022-09-27T01:19:19;1.80;;;1.70;;
19754;SDS011;10036;47.812;9.274;2022-09-27T01:22:02;3.95;;;1.65;;
19754;SDS011;10036;47.812;9.274;2022-09-27T01:30:42;2.13;;;1.60;;
19754;SDS011;10036;47.812;9.274;2022-09-27T01:36:11;1.80;;;1.70;;
19754;SDS011;10036;47.812;9.274;2022-09-27T01:38:55;2.03;;;1.80;;
19754;SDS011;10036;47.812;9.274;2022-09-27T01:41:33;2.08;;;1.98;;
19754;SDS011;10036;47.812;9.274;2022-09-27T01:44:07;2.53;;;1.90;;
19754;SDS011;10036;47.812;9.274;2022-09-27T01:46:40;1.65;;;1.55;;
19754;SDS011;10036;47.812;9.274;2022-09-27T01:49:12;3.03;;;1.92;;
19754;SDS011;10036;47.812;9.274;2022-09-27T01:51:42;1.98;;;1.80;;
19754;SDS011;10036;47.812;9.274;2022-09-27T01:54:13;1.83;;;1.73;;
19754;SDS011;10036;47.812;9.274;2022-09-27T01:56:45;2.45;;;1.70;;
19754;SDS011;10036;47.812;9.274;2022-09-27T01:59:17;1.90;;;1.80;;
19754;SDS011;10036;47.812;9.274;2022-09-27T02:01:51;1.90;;;1.75;;
19754;SDS011;10036;47.812;9.274;2022-09-27T02:04:20;1.52;;;1.42;;
19754;SDS011;10036;47.812;9.274;2022-09-27T02:06:50;2.38;;;1.75;;
19754;SDS011;10036;47.812;9.274;2022-09-27T02:09:24;1.60;;;1.50;;
19754;SDS011;10036;47.812;9.274;2022-09-27T02:11:55;2.35;;;1.30;;
19754;SDS011;10036;47.812;9.274;2022-09-27T02:14:30;1.52;;;1.42;;
19754;SDS011;10036;47.812;9.274;2022-09-27T02:17:05;1.50;;;1.40;;
19754;SDS011;10036;47.812;9.274;2022-09-27T02:19:43;1.40;;;1.30;;
19754;SDS011;10036;47.812;9.274;2022-09-27T02:22:21;1.30;;;1.20;;
19754;SDS011;10036;47.812;9.274;2022-09-27T02:24:58;1.50;;;1.40;;
19754;SDS011;10036;47.812;9.274;2022-09-27T02:27:29;1.90;;;1.20;;
19754;SDS011;10036;47.812;9.274;2022-09-27T02:29:59;1.60;;;1.33;;
19754;SDS011;10036;47.812;9.274;2022-09-27T02:32:31;1.48;;;1.38;;
19754;SDS011;10036;47.812;9.274;2022-09-27T02:34:59;1.40;;;1.30;;
19754;SDS011;10036;47.812;9.274;2022-09-27T02:37:29;1.88;;;1.20;;
19754;SDS011;10036;47.812;9.274;2022-09-27T02:39:57;1.20;;;1.20;;
19754;SDS011;10036;47.812;9.274;2022-09-27T02:42:24;1.33;;;1.33;;
19754;SDS011;10036;47.812;9.274;2022-09-27T02:44:53;1.10;;;1.10;;
19754;SDS011;10036;47.812;9.274;2022-09-27T02:47:27;1.75;;;1.25;;
19754;SDS011;10036;47.812;9.274;2022-09-27T02:50:08;4.15;;;1.20;;
19754;SDS011;10036;47.812;9.274;2022-09-27T02:53:03;1.40;;;1.30;;
19754;SDS011;10036;47.812;9.274;2022-09-27T02:55:39;1.10;;;1.10;;
19754;SDS011;10036;47.812;9.274;2022-09-27T02:58:16;2.75;;;1.25;;
19754;SDS011;10036;47.812;9.274;2022-09-27T03:00:51;1.65;;;1.00;;
19754;SDS011;10036;47.812;9.274;2022-09-27T03:03:30;2.83;;;1.15;;
19754;SDS011;10036;47.812;9.274;2022-09-27T03:06:06;2.10;;;1.38;;
19754;SDS011;10036;47.812;9.274;2022-09-27T03:08:35;1.10;;;1.10;;
19754;SDS011;10036;47.812;9.274;2022-09-27T03:11:03;1.35;;;1.20;;
19754;SDS011;10036;47.812;9.274;2022-09-27T03:13:29;2.55;;;1.52;;
19754;SDS011;10036;47.812;9.274;2022-09-27T03:15:58;2.60;;;1.23;;
19754;SDS011;10036;47.812;9.274;2022-09-27T03:18:25;2.38;;;1.30;;
19754;SDS011;10036;47.812;9.274;2022-09-27T03:20:54;3.60;;;1.52;;
19754;SDS011;10036;47.812;9.274;2022-09-27T03:23:21;1.50;;;1.40;;
19754;SDS011;10036;47.812;9.274;2022-09-27T03:25:47;2.63;;;1.33;;
19754;SDS011;10036;47.812;9.274;2022-09-27T03:28:15;2.67;;;1.55;;
19754;SDS011;10036;47.812;9.274;2022-09-27T03:30:43;2.45;;;1.30;;
19754;SDS011;10036;47.812;9.274;2022-09-27T03:33:10;2.13;;;1.33;;
19754;SDS011;10036;47.812;9.274;2022-09-27T03:35:38;3.22;;;1.50;;
19754;SDS011;10036;47.812;9.274;2022-09-27T03:38:07;4.78;;;1.42;;
19754;SDS011;10036;47.812;9.274;2022-09-27T03:40:35;1.83;;;1.40;;
19754;SDS011;10036;47.812;9.274;2022-09-27T03:43:02;3.58;;;1.20;;
19754;SDS011;10036;47.812;9.274;2022-09-27T03:45:28;2.10;;;1.30;;
19754;SDS011;10036;47.812;9.274;2022-09-27T03:47:55;2.50;;;1.20;;
19754;SDS011;10036;47.812;9.274;2022-09-27T03:50:22;1.90;;;1.20;;
19754;SDS011;10036;47.812;9.274;2022-09-27T03:52:49;3.15;;;1.25;;
19754;SDS011;10036;47.812;9.274;2022-09-27T03:55:18;1.88;;;1.20;;
19754;SDS011;10036;47.812;9.274;2022-09-27T03:57:45;3.83;;;1.40;;
19754;SDS011;10036;47.812;9.274;2022-09-27T04:00:12;1.50;;;1.20;;
19754;SDS011;10036;47.812;9.274;2022-09-27T04:02:40;1.35;;;1.13;;
19754;SDS011;10036;47.812;9.274;2022-09-27T04:05:07;1.23;;;1.00;;
19754;SDS011;10036;47.812;9.274;2022-09-27T04:07:35;3.10;;;0.98;;
19754;SDS011;10036;47.812;9.274;2022-09-27T04:10:02;1.20;;;1.10;;
19754;SDS011;10036;47.812;9.274;2022-09-27T04:12:31;1.00;;;1.00;;
19754;SDS011;10036;47.812;9.274;2022-09-27T04:14:58;1.60;;;1.20;;
19754;SDS011;10036;47.812;9.274;2022-09-27T04:17:26;3.22;;;1.10;;
19754;SDS011;10036;47.812;9.274;2022-09-27T04:19:53;2.00;;;1.20;;
19754;SDS011;10036;47.812;9.274;2022-09-27T04:22:19;3.45;;;1.58;;
19754;SDS011;10036;47.812;9.274;2022-09-27T04:24:47;1.30;;;1.17;;
19754;SDS011;10036;47.812;9.274;2022-09-27T04:27:14;2.50;;;1.10;;
19754;SDS011;10036;47.812;9.274;2022-09-27T04:29:43;1.70;;;1.10;;
19754;SDS011;10036;47.812;9.274;2022-09-27T04:32:10;1.25;;;1.15;;
19754;SDS011;10036;47.812;9.274;2022-09-27T04:34:37;1.25;;;1.00;;
19754;SDS011;10036;47.812;9.274;2022-09-27T04:37:21;2.58;;;1.08;;
19754;SDS011;10036;47.812;9.274;2022-09-27T04:39:48;2.50;;;1.20;;
19754;SDS011;10036;47.812;9.274;2022-09-27T04:42:15;3.15;;;1.00;;
19754;SDS011;10036;47.812;9.274;2022-09-27T04:44:44;1.63;;;0.95;;
19754;SDS011;10036;47.812;9.274;2022-09-27T04:47:11;3.03;;;1.20;;
19754;SDS011;10036;47.812;9.274;2022-09-27T04:49:39;2.35;;;1.05;;
19754;SDS011;10036;47.812;9.274;2022-09-27T04:52:05;3.38;;;1.20;;
19754;SDS011;10036;47.812;9.274;2022-09-27T04:54:32;1.15;;;1.00;;
19754;SDS011;10036;47.812;9.274;2022-09-27T04:56:59;2.33;;;1.20;;
19754;SDS011;10036;47.812;9.274;2022-09-27T04:59:26;2.40;;;1.30;;
19754;SDS011;10036;47.812;9.274;2022-09-27T05:01:54;2.17;;;1.08;;
19754;SDS011;10036;47.812;9.274;2022-09-27T05:04:23;2.15;;;1.23;;
19754;SDS011;10036;47.812;9.274;2022-09-27T05:06:50;2.47;;;1.20;;
19754;SDS011;10036;47.812;9.274;2022-09-27T05:09:17;1.27;;;1.10;;
19754;SDS011;10036;47.812;9.274;2022-09-27T05:11:44;4.57;;;1.40;;
19754;SDS011;10036;47.812;9.274;2022-09-27T05:14:11;3.55;;;1.67;;
19754;SDS011;10036;47.812;9.274;2022-09-27T05:16:39;5.90;;;1.40;;
19754;SDS011;10036;47.812;9.274;2022-09-27T05:19:07;2.15;;;1.20;;
19754;SDS011;10036;47.812;9.274;2022-09-27T05:21:34;3.10;;;1.45;;
19754;SDS011;10036;47.812;9.274;2022-09-27T05:24:01;2.90;;;1.25;;
19754;SDS011;10036;47.812;9.274;2022-09-27T05:26:28;5.28;;;1.50;;
19754;SDS011;10036;47.812;9.274;2022-09-27T05:28:55;2.15;;;1.20;;
19754;SDS011;10036;47.812;9.274;2022-09-27T05:31:21;3.42;;;1.25;;
19754;SDS011;10036;47.812;9.274;2022-09-27T05:33:49;3.35;;;1.65;;
19754;SDS011;10036;47.812;9.274;2022-09-27T05:36:18;2.78;;;1.50;;
19754;SDS011;10036;47.812;9.274;2022-09-27T05:38:44;3.90;;;1.70;;
19754;SDS011;10036;47.812;9.274;2022-09-27T05:41:12;2.30;;;1.35;;
19754;SDS011;10036;47.812;9.274;2022-09-27T05:43:39;4.32;;;1.60;;
19754;SDS011;10036;47.812;9.274;2022-09-27T05:46:07;3.70;;;1.52;;
19754;SDS011;10036;47.812;9.274;2022-09-27T05:48:34;3.53;;;1.48;;
19754;SDS011;10036;47.812;9.274;2022-09-27T05:51:02;2.58;;;1.60;;
19754;SDS011;10036;47.812;9.274;2022-09-27T05:53:31;2.78;;;1.33;;
19754;SDS011;10036;47.812;9.274;2022-09-27T05:55:59;4.60;;;1.85;;
19754;SDS011;10036;47.812;9.274;2022-09-27T05:58:27;3.22;;;1.60;;
19754;SDS011;10036;47.812;9.274;2022-09-27T06:00:54;2.40;;;1.30;;
19754;SDS011;10036;47.812;9.274;2022-09-27T06:03:21;2.63;;;1.38;;
19754;SDS011;10036;47.812;9.274;2022-09-27T06:05:48;1.60;;;1.40;;
19754;SDS011;10036;47.812;9.274;2022-09-27T06:08:15;4.28;;;1.40;;
19754;SDS011;10036;47.812;9.274;2022-09-27T06:10:45;2.03;;;1.40;;
19754;SDS011;10036;47.812;9.274;2022-09-27T06:13:12;2.15;;;1.20;;
19754;SDS011;10036;47.812;9.274;2022-09-27T06:15:42;2.35;;;1.33;;
19754;SDS011;10036;47.812;9.274;2022-09-27T06:18:11;4.57;;;1.50;;
19754;SDS011;10036;47.812;9.274;2022-09-27T06:20:40;2.35;;;1.30;;
19754;SDS011;10036;47.812;9.274;2022-09-27T06:23:08;1.63;;;1.30;;
19754;SDS011;10036;47.812;9.274;2022-09-27T06:25:36;5.57;;;1.40;;
19754;SDS011;10036;47.812;9.274;2022-09-27T06:28:05;3.63;;;1.40;;
19754;SDS011;10036;47.812;9.274;2022-09-27T06:30:32;3.17;;;1.48;;
19754;SDS011;10036;47.812;9.274;2022-09-27T06:32:59;1.88;;;1.30;;
19754;SDS011;10036;47.812;9.274;2022-09-27T06:35:28;2.55;;;1.25;;
19754;SDS011;10036;47.812;9.274;2022-09-27T06:37:55;2.30;;;1.40;;
19754;SDS011;10036;47.812;9.274;2022-09-27T06:40:23;2.75;;;1.20;;
19754;SDS011;10036;47.812;9.274;2022-09-27T06:42:51;3.20;;;1.20;;
19754;SDS011;10036;47.812;9.274;2022-09-27T06:45:19;3.97;;;1.45;;
19754;SDS011;10036;47.812;9.274;2022-09-27T06:47:46;2.58;;;1.20;;
19754;SDS011;10036;47.812;9.274;2022-09-27T06:50:13;3.25;;;1.55;;
19754;SDS011;10036;47.812;9.274;2022-09-27T06:52:45;2.08;;;1.10;;
19754;SDS011;10036;47.812;9.274;2022-09-27T06:55:13;1.40;;;1.30;;
19754;SDS011;10036;47.812;9.274;2022-09-27T06:57:40;3.08;;;1.33;;
19754;SDS011;10036;47.812;9.274;2022-09-27T07:00:26;1.33;;;1.23;;
19754;SDS011;10036;47.812;9.274;2022-09-27T07:02:54;3.67;;;1.48;;
19754;SDS011;10036;47.812;9.274;2022-09-27T07:05:25;2.53;;;1.10;;
19754;SDS011;10036;47.812;9.274;2022-09-27T07:07:52;2.25;;;1.13;;
19754;SDS011;10036;47.812;9.274;2022-09-27T07:10:22;3.35;;;1.33;;
19754;SDS011;10036;47.812;9.274;2022-09-27T07:12:50;2.78;;;1.30;;
19754;SDS011;10036;47.812;9.274;2022-09-27T07:15:18;1.73;;;1.20;;
19754;SDS011;10036;47.812;9.274;2022-09-27T07:17:48;2.80;;;1.20;;
19754;SDS011;10036;47.812;9.274;2022-09-27T07:20:22;1.30;;;1.20;;
19754;SDS011;10036;47.812;9.274;2022-09-27T07:22:49;2.40;;;1.10;;
19754;SDS011;10036;47.812;9.274;2022-09-27T07:25:16;1.25;;;1.15;;
19754;SDS011;10036;47.812;9.274;2022-09-27T07:27:43;3.05;;;1.10;;
19754;SDS011;10036;47.812;9.274;2022-09-27T07:30:10;3.53;;;1.40;;
19754;SDS011;10036;47.812;9.274;2022-09-27T07:32:38;1.67;;;1.20;;
19754;SDS011;10036;47.812;9.274;2022-09-27T07:35:07;1.10;;;1.10;;
19754;SDS011;10036;47.812;9.274;2022-09-27T07:37:35;1.13;;;1.10;;
19754;SDS011;10036;47.812;9.274;2022-09-27T07:40:04;1.40;;;1.10;;
19754;SDS011;10036;47.812;9.274;2022-09-27T07:42:33;1.17;;;1.05;;
19754;SDS011;10036;47.812;9.274;2022-09-27T07:45:02;0.82;;;0.82;;
19754;SDS011;10036;47.812;9.274;2022-09-27T07:47:29;1.30;;;1.17;;
19754;SDS011;10036;47.812;9.274;2022-09-27T07:49:56;1.20;;;1.10;;
19754;SDS011;10036;47.812;9.274;2022-09-27T07:52:24;2.05;;;1.30;;
19754;SDS011;10036;47.812;9.274;2022-09-27T07:54:51;1.05;;;0.95;;
19754;SDS011;10036;47.812;9.274;2022-09-27T07:57:21;1.23;;;1.02;;
19754;SDS011;10036;47.812;9.274;2022-09-27T07:59:48;1.08;;;0.98;;
19754;SDS011;10036;47.812;9.274;2022-09-27T08:02:16;2.72;;;1.00;;
19754;SDS011;10036;47.812;9.274;2022-09-27T08:04:43;1.25;;;0.90;;
19754;SDS011;10036;47.812;9.274;2022-09-27T08:07:11;0.93;;;0.93;;
19754;SDS011;10036;47.812;9.274;2022-09-27T08:09:40;0.85;;;0.85;;
19754;SDS011;10036;47.812;9.274;2022-09-27T08:12:07;2.80;;;1.00;;
19754;SDS011;10036;47.812;9.274;2022-09-27T08:14:34;0.90;;;0.90;;
19754;SDS011;10036;47.812;9.274;2022-09-27T08:17:01;1.25;;;1.00;;
19754;SDS011;10036;47.812;9.274;2022-09-27T08:19:28;0.98;;;0.90;;
19754;SDS011;10036;47.812;9.274;2022-09-27T08:21:55;2.28;;;1.05;;
19754;SDS011;10036;47.812;9.274;2022-09-27T08:24:22;1.00;;;1.00;;
19754;SDS011;10036;47.812;9.274;2022-09-27T08:26:51;2.13;;;1.00;;
19754;SDS011;10036;47.812;9.274;2022-09-27T08:29:18;1.70;;;0.90;;
19754;SDS011;10036;47.812;9.274;2022-09-27T08:31:45;1.13;;;0.95;;
19754;SDS011;10036;47.812;9.274;2022-09-27T08:34:12;3.22;;;1.05;;
19754;SDS011;10036;47.812;9.274;2022-09-27T08:36:39;0.90;;;0.90;;
19754;SDS011;10036;47.812;9.274;2022-09-27T08:39:08;1.00;;;0.90;;
19754;SDS011;10036;47.812;9.274;2022-09-27T08:41:36;0.98;;;0.98;;
19754;SDS011;10036;47.812;9.274;2022-09-27T08:44:08;0.90;;;0.90;;
19754;SDS011;10036;47.812;9.274;2022-09-27T08:46:46;1.05;;;1.00;;
19754;SDS011;10036;47.812;9.274;2022-09-27T08:49:27;1.05;;;0.95;;
19754;SDS011;10036;47.812;9.274;2022-09-27T08:52:02;1.20;;;1.10;;
19754;SDS011;10036;47.812;9.274;2022-09-27T08:54:32;1.08;;;1.02;;
19754;SDS011;10036;47.812;9.274;2022-09-27T08:57:03;1.80;;;1.00;;
19754;SDS011;10036;47.812;9.274;2022-09-27T08:59:36;1.90;;;1.05;;
19754;SDS011;10036;47.812;9.274;2022-09-27T09:02:11;2.55;;;0.90;;
19754;SDS011;10036;47.812;9.274;2022-09-27T09:04:42;0.93;;;0.90;;
19754;SDS011;10036;47.812;9.274;2022-09-27T09:07:18;1.95;;;0.93;;
19754;SDS011;10036;47.812;9.274;2022-09-27T09:09:58;0.80;;;0.80;;
19754;SDS011;10036;47.812;9.274;2022-09-27T09:12:35;1.13;;;1.00;;
19754;SDS011;10036;47.812;9.274;2022-09-27T09:15:15;1.33;;;1.00;;
19754;SDS011;10036;47.812;9.274;2022-09-27T09:17:56;0.90;;;0.90;;
19754;SDS011;10036;47.812;9.274;2022-09-27T09:20:42;0.85;;;0.82;;
19754;SDS011;10036;47.812;9.274;2022-09-27T09:23:32;1.10;;;1.00;;
19754;SDS011;10036;47.812;9.274;2022-09-27T09:26:08;1.10;;;0.98;;
19754;SDS011;10036;47.812;9.274;2022-09-27T09:28:47;1.05;;;1.00;;
19754;SDS011;10036;47.812;9.274;2022-09-27T09:31:29;1.23;;;0.98;;
19754;SDS011;10036;47.812;9.274;2022-09-27T09:34:04;2.50;;;1.00;;
19754;SDS011;10036;47.812;9.274;2022-09-27T09:36:37;1.50;;;1.10;;
19754;SDS011;10036;47.812;9.274;2022-09-27T09:39:10;1.50;;;0.98;;
19754;SDS011;10036;47.812;9.274;2022-09-27T09:41:40;2.25;;;1.33;;
19754;SDS011;10036;47.812;9.274;2022-09-27T09:44:14;2.35;;;1.23;;
19754;SDS011;10036;47.812;9.274;2022-09-27T09:46:47;2.15;;;1.38;;
19754;SDS011;10036;47.812;9.274;2022-09-27T09:49:19;1.58;;;1.48;;
19754;SDS011;10036;47.812;9.274;2022-09-27T09:51:50;3.22;;;1.58;;
19754;SDS011;10036;47.812;9.274;2022-09-27T09:54:21;3.92;;;1.30;;
19754;SDS011;10036;47.812;9.274;2022-09-27T09:56:54;6.07;;;1.88;;
19754;SDS011;10036;47.812;9.274;2022-09-27T09:59:26;2.95;;;1.40;;
19754;SDS011;10036;47.812;9.274;2022-09-27T10:02:02;2.53;;;1.48;;
19754;SDS011;10036;47.812;9.274;2022-09-27T10:04:44;3.15;;;1.58;;
19754;SDS011;10036;47.812;9.274;2022-09-27T10:07:11;2.22;;;1.40;;
19754;SDS011;10036;47.812;9.274;2022-09-27T10:09:39;4.95;;;1.70;;
19754;SDS011;10036;47.812;9.274;2022-09-27T10:12:06;3.58;;;1.48;;
19754;SDS011;10036;47.812;9.274;2022-09-27T10:14:34;3.33;;;1.60;;
19754;SDS011;10036;47.812;9.274;2022-09-27T10:17:03;3.92;;;1.63;;
19754;SDS011;10036;47.812;9.274;2022-09-27T10:19:36;2.63;;;1.40;;
19754;SDS011;10036;47.812;9.274;2022-09-27T10:22:09;2.38;;;1.27;;
19754;SDS011;10036;47.812;9.274;2022-09-27T10:24:52;2.50;;;1.35;;
19754;SDS011;10036;47.812;9.274;2022-09-27T10:27:21;2.42;;;1.52;;
19754;SDS011;10036;47.812;9.274;2022-09-27T10:29:55;4.28;;;1.50;;
19754;SDS011;10036;47.812;9.274;2022-09-27T10:32:25;4.00;;;1.58;;
19754;SDS011;10036;47.812;9.274;2022-09-27T10:37:45;2.45;;;1.20;;
19754;SDS011;10036;47.812;9.274;2022-09-27T10:40:23;1.85;;;1.30;;
19754;SDS011;10036;47.812;9.274;2022-09-27T10:42:52;2.80;;;1.35;;
19754;SDS011;10036;47.812;9.274;2022-09-27T10:45:23;3.92;;;1.67;;
19754;SDS011;10036;47.812;9.274;2022-09-27T10:47:54;5.03;;;1.80;;
19754;SDS011;10036;47.812;9.274;2022-09-27T10:50:23;5.32;;;1.67;;
19754;SDS011;10036;47.812;9.274;2022-09-27T10:52:59;3.08;;;1.38;;
19754;SDS011;10036;47.812;9.274;2022-09-27T10:55:28;3.63;;;1.40;;
19754;SDS011;10036;47.812;9.274;2022-09-27T10:57:59;1.40;;;1.20;;
19754;SDS011;10036;47.812;9.274;2022-09-27T11:00:28;4.78;;;1.75;;
19754;SDS011;10036;47.812;9.274;2022-09-27T11:03:00;1.88;;;1.38;;
19754;SDS011;10036;47.812;9.274;2022-09-27T11:05:33;2.92;;;1.65;;
19754;SDS011;10036;47.812;9.274;2022-09-27T11:08:17;2.30;;;1.40;;
19754;SDS011;10036;47.812;9.274;2022-09-27T11:10:59;3.47;;;1.30;;
19754;SDS011;10036;47.812;9.274;2022-09-27T11:13:28;2.15;;;1.45;;
19754;SDS011;10036;47.812;9.274;2022-09-27T11:18:58;4.18;;;1.20;;
19754;SDS011;10036;47.812;9.274;2022-09-27T11:21:36;2.83;;;1.30;;
19754;SDS011;10036;47.812;9.274;2022-09-27T11:24:20;1.70;;;1.30;;
19754;SDS011;10036;47.812;9.274;2022-09-27T11:27:01;2.35;;;1.38;;
19754;SDS011;10036;47.812;9.274;2022-09-27T11:29:42;2.33;;;1.45;;
19754;SDS011;10036;47.812;9.274;2022-09-27T11:32:18;3.60;;;1.90;;
19754;SDS011;10036;47.812;9.274;2022-09-27T11:35:00;2.78;;;1.95;;
19754;SDS011;10036;47.812;9.274;2022-09-27T11:37:37;2.55;;;1.10;;
19754;SDS011;10036;47.812;9.274;2022-09-27T11:40:22;1.10;;;1.00;;
19754;SDS011;10036;47.812;9.274;2022-09-27T11:45:53;1.08;;;1.08;;
19754;SDS011;10036;47.812;9.274;2022-09-27T11:48:33;2.65;;;1.13;;
19754;SDS011;10036;47.812;9.274;2022-09-27T11:51:14;0.95;;;0.95;;
19754;SDS011;10036;47.812;9.274;2022-09-27T11:53:57;1.88;;;0.85;;
19754;SDS011;10036;47.812;9.274;2022-09-27T11:56:39;1.10;;;1.00;;
19754;SDS011;10036;47.812;9.274;2022-09-27T11:59:18;1.77;;;1.00;;
19754;SDS011;10036;47.812;9.274;2022-09-27T12:02:00;1.20;;;1.10;;
19754;SDS011;10036;47.812;9.274;2022-09-27T12:04:50;2.22;;;1.20;;
19754;SDS011;10036;47.812;9.274;2022-09-27T12:07:29;2.70;;;1.30;;
19754;SDS011;10036;47.812;9.274;2022-09-27T12:10:09;0.90;;;0.90;;
19754;SDS011;10036;47.812;9.274;2022-09-27T12:12:41;1.05;;;0.98;;
19754;SDS011;10036;47.812;9.274;2022-09-27T12:15:12;1.48;;;1.25;;
19754;SDS011;10036;47.812;9.274;2022-09-27T12:17:43;2.25;;;1.08;;
19754;SDS011;10036;47.812;9.274;2022-09-27T12:20:13;1.00;;;1.00;;
19754;SDS011;10036;47.812;9.274;2022-09-27T12:22:49;3.03;;;1.30;;
19754;SDS011;10036;47.812;9.274;2022-09-27T12:25:20;1.80;;;1.40;;
19754;SDS011;10036;47.812;9.274;2022-09-27T12:27:52;1.85;;;1.10;;
19754;SDS011;10036;47.812;9.274;2022-09-27T12:30:23;4.10;;;1.23;;
19754;SDS011;10036;47.812;9.274;2022-09-27T12:32:52;2.47;;;1.25;;
19754;SDS011;10036;47.812;9.274;2022-09-27T12:35:27;1.40;;;1.30;;
19754;SDS011;10036;47.812;9.274;2022-09-27T12:37:58;4.32;;;1.70;;
19754;SDS011;10036;47.812;9.274;2022-09-27T12:40:31;2.83;;;1.15;;
19754;SDS011;10036;47.812;9.274;2022-09-27T12:43:02;1.85;;;1.10;;
19754;SDS011;10036;47.812;9.274;2022-09-27T12:45:35;2.25;;;1.20;;
19754;SDS011;10036;47.812;9.274;2022-09-27T12:48:11;2.00;;;1.20;;
19754;SDS011;10036;47.812;9.274;2022-09-27T12:50:51;2.92;;;0.95;;
19754;SDS011;10036;47.812;9.274;2022-09-27T12:53:22;1.77;;;1.10;;
19754;SDS011;10036;47.812;9.274;2022-09-27T12:55:58;1.50;;;1.10;;
19754;SDS011;10036;47.812;9.274;2022-09-27T12:58:38;3.53;;;1.10;;
19754;SDS011;10036;47.812;9.274;2022-09-27T13:01:19;2.33;;;1.00;;
19754;SDS011;10036;47.812;9.274;2022-09-27T13:04:12;2.15;;;1.00;;
19754;SDS011;10036;47.812;9.274;2022-09-27T13:06:58;1.17;;;0.90;;
19754;SDS011;10036;47.812;9.274;2022-09-27T13:09:44;2.30;;;1.02;;
19754;SDS011;10036;47.812;9.274;2022-09-27T13:12:35;2.30;;;1.20;;
19754;SDS011;10036;47.812;9.274;2022-09-27T13:15:05;3.45;;;1.00;;
19754;SDS011;10036;47.812;9.274;2022-09-27T13:17:49;2.20;;;1.08;;
19754;SDS011;10036;47.812;9.274;2022-09-27T13:26:43;1.45;;;1.08;;
19754;SDS011;10036;47.812;9.274;2022-09-27T13:34:53;4.25;;;0.95;;
19754;SDS011;10036;47.812;9.274;2022-09-27T13:43:11;4.72;;;1.20;;
19754;SDS011;10036;47.812;9.274;2022-09-27T13:46:03;1.65;;;1.20;;
19754;SDS011;10036;47.812;9.274;2022-09-27T13:48:38;5.13;;;1.20;;
19754;SDS011;10036;47.812;9.274;2022-09-27T13:51:16;0.98;;;0.90;;
19754;SDS011;10036;47.812;9.274;2022-09-27T13:53:55;3.17;;;0.95;;
19754;SDS011;10036;47.812;9.274;2022-09-27T13:59:16;1.85;;;1.02;;
19754;SDS011;10036;47.812;9.274;2022-09-27T14:01:49;1.02;;;0.93;;
19754;SDS011;10036;47.812;9.274;2022-09-27T14:04:19;1.67;;;1.05;;
19754;SDS011;10036;47.812;9.274;2022-09-27T14:06:49;1.65;;;1.10;;
19754;SDS011;10036;47.812;9.274;2022-09-27T14:09:23;1.13;;;0.95;;
19754;SDS011;10036;47.812;9.274;2022-09-27T14:11:54;3.70;;;1.25;;
19754;SDS011;10036;47.812;9.274;2022-09-27T14:14:26;3.40;;;1.35;;
19754;SDS011;10036;47.812;9.274;2022-09-27T14:16:57;1.98;;;1.20;;
19754;SDS011;10036;47.812;9.274;2022-09-27T14:19:25;0.90;;;0.90;;
19754;SDS011;10036;47.812;9.274;2022-09-27T14:21:53;1.30;;;1.02;;
19754;SDS011;10036;47.812;9.274;2022-09-27T14:24:28;0.82;;;0.82;;
19754;SDS011;10036;47.812;9.274;2022-09-27T14:27:03;1.73;;;1.08;;
19754;SDS011;10036;47.812;9.274;2022-09-27T14:29:38;2.60;;;1.00;;
19754;SDS011;10036;47.812;9.274;2022-09-27T14:32:09;2.95;;;1.00;;
19754;SDS011;10036;47.812;9.274;2022-09-27T14:34:37;3.13;;;1.40;;
19754;SDS011;10036;47.812;9.274;2022-09-27T14:37:04;1.38;;;1.10;;
19754;SDS011;10036;47.812;9.274;2022-09-27T14:40:00;1.42;;;1.02;;
19754;SDS011;10036;47.812;9.274;2022-09-27T14:42:31;3.92;;;1.10;;
19754;SDS011;10036;47.812;9.274;2022-09-27T14:45:04;1.42;;;1.00;;
19754;SDS011;10036;47.812;9.274;2022-09-27T14:47:43;1.95;;;1.10;;
19754;SDS011;10036;47.812;9.274;2022-09-27T14:50:12;1.70;;;1.13;;
19754;SDS011;10036;47.812;9.274;2022-09-27T14:52:44;2.90;;;1.08;;
19754;SDS011;10036;47.812;9.274;2022-09-27T14:55:15;2.00;;;1.10;;
19754;SDS011;10036;47.812;9.274;2022-09-27T14:57:44;4.25;;;1.27;;
19754;SDS011;10036;47.812;9.274;2022-09-27T15:00:17;2.60;;;1.35;;
19754;SDS011;10036;47.812;9.274;2022-09-27T15:02:46;1.80;;;1.30;;
19754;SDS011;10036;47.812;9.274;2022-09-27T15:05:15;2.58;;;1.33;;
19754;SDS011;10036;47.812;9.274;2022-09-27T15:07:44;2.40;;;1.15;;
19754;SDS011;10036;47.812;9.274;2022-09-27T15:10:13;2.35;;;1.45;;
19754;SDS011;10036;47.812;9.274;2022-09-27T15:12:42;1.77;;;1.23;;
19754;SDS011;10036;47.812;9.274;2022-09-27T15:15:13;2.47;;;1.48;;
19754;SDS011;10036;47.812;9.274;2022-09-27T15:17:45;1.05;;;1.02;;
19754;SDS011;10036;47.812;9.274;2022-09-27T15:20:19;1.70;;;1.50;;
19754;SDS011;10036;47.812;9.274;2022-09-27T15:22:50;2.38;;;1.30;;
19754;SDS011;10036;47.812;9.274;2022-09-27T15:25:18;2.15;;;1.10;;
19754;SDS011;10036;47.812;9.274;2022-09-27T15:27:49;1.85;;;1.15;;
19754;SDS011;10036;47.812;9.274;2022-09-27T15:30:20;2.50;;;1.27;;
19754;SDS011;10036;47.812;9.274;2022-09-27T15:32:52;2.30;;;1.17;;
19754;SDS011;10036;47.812;9.274;2022-09-27T15:35:25;1.35;;;1.23;;
19754;SDS011;10036;47.812;9.274;2022-09-27T15:38:10;3.35;;;1.27;;
19754;SDS011;10036;47.812;9.274;2022-09-27T15:40:55;2.25;;;1.20;;
19754;SDS011;10036;47.812;9.274;2022-09-27T15:43:28;1.27;;;1.20;;
19754;SDS011;10036;47.812;9.274;2022-09-27T15:45:58;1.00;;;1.00;;
19754;SDS011;10036;47.812;9.274;2022-09-27T15:48:27;1.60;;;1.30;;
19754;SDS011;10036;47.812;9.274;2022-09-27T15:50:56;2.15;;;1.50;;
19754;SDS011;10036;47.812;9.274;2022-09-27T15:53:39;1.08;;;1.00;;